sensor_id;sensor_type;location;lat;lon;timestamp;P1;durP1;ratioP1;P2;durP2;ratioP2
49860;SDS011;35761;48.826;9.238;2024-03-23T00:52:25;10.63;;;4.70;;
49860;SDS011;35761;48.826;9.238;2024-03-23T00:54:51;8.70;;;3.97;;
49860;SDS011;35761;48.826;9.238;2024-03-23T00:57:17;7.50;;;4.20;;
49860;SDS011;35761;48.826;9.238;2024-03-23T00:59:42;11.55;;;3.80;;
49860;SDS011;35761;48.826;9.238;2024-03-23T01:02:08;13.25;;;5.78;;
49860;SDS011;35761;48.826;9.238;2024-03-23T01:04:33;8.80;;;4.25;;
49860;SDS011;35761;48.826;9.238;2024-03-23T01:06:59;9.38;;;4.50;;
49860;SDS011;35761;48.826;9.238;2024-03-23T01:09:24;8.27;;;3.95;;
49860;SDS011;35761;48.826;9.238;2024-03-23T01:11:50;7.88;;;3.95;;
49860;SDS011;35761;48.826;9.238;2024-03-23T01:14:15;13.35;;;4.35;;
49860;SDS011;35761;48.826;9.238;2024-03-23T01:16:41;11.63;;;5.15;;
49860;SDS011;35761;48.826;9.238;2024-03-23T01:19:06;8.25;;;3.75;;
49860;SDS011;35761;48.826;9.238;2024-03-23T01:21:31;12.50;;;5.32;;
49860;SDS011;35761;48.826;9.238;2024-03-23T01:23:57;8.30;;;4.03;;
49860;SDS011;35761;48.826;9.238;2024-03-23T01:26:22;11.57;;;4.93;;
49860;SDS011;35761;48.826;9.238;2024-03-23T01:28:48;7.15;;;3.92;;
49860;SDS011;35761;48.826;9.238;2024-03-23T01:31:13;8.20;;;4.38;;
49860;SDS011;35761;48.826;9.238;2024-03-23T01:33:39;10.90;;;4.10;;
49860;SDS011;35761;48.826;9.238;2024-03-23T01:36:04;6.70;;;3.65;;
49860;SDS011;35761;48.826;9.238;2024-03-23T01:38:30;10.13;;;4.53;;
49860;SDS011;35761;48.826;9.238;2024-03-23T01:40:56;13.30;;;3.92;;
49860;SDS011;35761;48.826;9.238;2024-03-23T01:43:22;10.45;;;4.10;;
49860;SDS011;35761;48.826;9.238;2024-03-23T01:45:48;8.45;;;3.97;;
49860;SDS011;35761;48.826;9.238;2024-03-23T01:48:13;10.55;;;3.97;;
49860;SDS011;35761;48.826;9.238;2024-03-23T01:50:39;6.00;;;3.60;;
49860;SDS011;35761;48.826;9.238;2024-03-23T01:53:04;8.50;;;3.30;;
49860;SDS011;35761;48.826;9.238;2024-03-23T01:55:34;8.95;;;3.97;;
49860;SDS011;35761;48.826;9.238;2024-03-23T01:57:59;8.73;;;3.65;;
49860;SDS011;35761;48.826;9.238;2024-03-23T02:00:25;8.45;;;3.70;;
49860;SDS011;35761;48.826;9.238;2024-03-23T02:02:53;14.35;;;3.78;;
49860;SDS011;35761;48.826;9.238;2024-03-23T02:05:18;7.50;;;3.60;;
49860;SDS011;35761;48.826;9.238;2024-03-23T02:07:44;5.90;;;2.85;;
49860;SDS011;35761;48.826;9.238;2024-03-23T02:10:09;6.57;;;2.90;;
49860;SDS011;35761;48.826;9.238;2024-03-23T02:12:36;6.43;;;3.05;;
49860;SDS011;35761;48.826;9.238;2024-03-23T02:15:02;7.57;;;3.40;;
49860;SDS011;35761;48.826;9.238;2024-03-23T02:17:33;7.47;;;3.25;;
49860;SDS011;35761;48.826;9.238;2024-03-23T02:19:59;5.40;;;2.67;;
49860;SDS011;35761;48.826;9.238;2024-03-23T02:22:25;6.85;;;3.00;;
49860;SDS011;35761;48.826;9.238;2024-03-23T02:25:02;4.88;;;3.00;;
49860;SDS011;35761;48.826;9.238;2024-03-23T02:27:29;9.75;;;3.45;;
49860;SDS011;35761;48.826;9.238;2024-03-23T02:29:54;3.85;;;2.22;;
49860;SDS011;35761;48.826;9.238;2024-03-23T02:32:20;7.50;;;2.63;;
49860;SDS011;35761;48.826;9.238;2024-03-23T02:34:45;6.40;;;2.50;;
49860;SDS011;35761;48.826;9.238;2024-03-23T02:37:11;4.45;;;2.47;;
49860;SDS011;35761;48.826;9.238;2024-03-23T02:39:37;5.53;;;2.75;;
49860;SDS011;35761;48.826;9.238;2024-03-23T02:42:02;7.00;;;2.30;;
49860;SDS011;35761;48.826;9.238;2024-03-23T02:44:28;5.05;;;2.08;;
49860;SDS011;35761;48.826;9.238;2024-03-23T02:46:54;7.97;;;2.13;;
49860;SDS011;35761;48.826;9.238;2024-03-23T02:49:19;7.80;;;2.28;;
49860;SDS011;35761;48.826;9.238;2024-03-23T02:51:46;5.38;;;2.20;;
49860;SDS011;35761;48.826;9.238;2024-03-23T02:54:13;6.07;;;2.17;;
49860;SDS011;35761;48.826;9.238;2024-03-23T02:56:39;4.65;;;2.25;;
49860;SDS011;35761;48.826;9.238;2024-03-23T02:59:04;9.10;;;2.40;;
49860;SDS011;35761;48.826;9.238;2024-03-23T03:01:30;6.68;;;2.22;;
49860;SDS011;35761;48.826;9.238;2024-03-23T03:03:55;4.32;;;2.10;;
49860;SDS011;35761;48.826;9.238;2024-03-23T03:06:25;4.30;;;2.40;;
49860;SDS011;35761;48.826;9.238;2024-03-23T03:08:50;4.40;;;2.40;;
49860;SDS011;35761;48.826;9.238;2024-03-23T03:11:16;4.00;;;2.35;;
49860;SDS011;35761;48.826;9.238;2024-03-23T03:13:41;7.15;;;2.30;;
49860;SDS011;35761;48.826;9.238;2024-03-23T03:16:10;5.45;;;2.40;;
49860;SDS011;35761;48.826;9.238;2024-03-23T03:18:36;7.13;;;2.38;;
49860;SDS011;35761;48.826;9.238;2024-03-23T03:21:01;4.82;;;2.35;;
49860;SDS011;35761;48.826;9.238;2024-03-23T03:23:27;7.25;;;1.88;;
49860;SDS011;35761;48.826;9.238;2024-03-23T03:25:53;4.93;;;2.10;;
49860;SDS011;35761;48.826;9.238;2024-03-23T03:28:18;5.82;;;2.28;;
49860;SDS011;35761;48.826;9.238;2024-03-23T03:30:44;4.25;;;2.10;;
49860;SDS011;35761;48.826;9.238;2024-03-23T03:33:10;6.68;;;2.20;;
49860;SDS011;35761;48.826;9.238;2024-03-23T03:35:35;4.25;;;2.10;;
49860;SDS011;35761;48.826;9.238;2024-03-23T03:38:02;4.22;;;2.05;;
49860;SDS011;35761;48.826;9.238;2024-03-23T03:40:29;6.20;;;2.20;;
49860;SDS011;35761;48.826;9.238;2024-03-23T03:42:55;4.47;;;2.10;;
49860;SDS011;35761;48.826;9.238;2024-03-23T03:45:21;3.50;;;1.90;;
49860;SDS011;35761;48.826;9.238;2024-03-23T03:47:46;3.67;;;1.80;;
49860;SDS011;35761;48.826;9.238;2024-03-23T03:50:12;7.03;;;2.53;;
49860;SDS011;35761;48.826;9.238;2024-03-23T03:52:37;3.50;;;1.90;;
49860;SDS011;35761;48.826;9.238;2024-03-23T03:55:03;4.20;;;2.00;;
49860;SDS011;35761;48.826;9.238;2024-03-23T03:57:28;3.80;;;2.03;;
49860;SDS011;35761;48.826;9.238;2024-03-23T03:59:54;4.20;;;1.85;;
49860;SDS011;35761;48.826;9.238;2024-03-23T04:02:20;5.03;;;2.08;;
49860;SDS011;35761;48.826;9.238;2024-03-23T04:04:45;6.03;;;2.47;;
49860;SDS011;35761;48.826;9.238;2024-03-23T04:07:11;4.32;;;2.00;;
49860;SDS011;35761;48.826;9.238;2024-03-23T04:09:36;5.47;;;2.05;;
49860;SDS011;35761;48.826;9.238;2024-03-23T04:12:02;3.75;;;2.22;;
49860;SDS011;35761;48.826;9.238;2024-03-23T04:14:27;5.57;;;2.45;;
49860;SDS011;35761;48.826;9.238;2024-03-23T04:16:53;7.15;;;2.47;;
49860;SDS011;35761;48.826;9.238;2024-03-23T04:19:18;5.35;;;2.42;;
49860;SDS011;35761;48.826;9.238;2024-03-23T04:21:44;4.93;;;2.80;;
49860;SDS011;35761;48.826;9.238;2024-03-23T04:24:10;4.20;;;2.40;;
49860;SDS011;35761;48.826;9.238;2024-03-23T04:26:42;4.10;;;2.38;;
49860;SDS011;35761;48.826;9.238;2024-03-23T04:29:11;7.55;;;2.42;;
49860;SDS011;35761;48.826;9.238;2024-03-23T04:31:37;4.82;;;2.30;;
49860;SDS011;35761;48.826;9.238;2024-03-23T04:34:03;6.22;;;2.30;;
49860;SDS011;35761;48.826;9.238;2024-03-23T04:36:29;5.45;;;2.40;;
49860;SDS011;35761;48.826;9.238;2024-03-23T04:38:56;4.13;;;2.22;;
49860;SDS011;35761;48.826;9.238;2024-03-23T04:41:22;4.82;;;2.90;;
49860;SDS011;35761;48.826;9.238;2024-03-23T04:43:47;7.07;;;2.85;;
49860;SDS011;35761;48.826;9.238;2024-03-23T04:46:13;6.32;;;2.47;;
49860;SDS011;35761;48.826;9.238;2024-03-23T04:48:38;5.82;;;3.20;;
49860;SDS011;35761;48.826;9.238;2024-03-23T04:51:04;10.07;;;3.83;;
49860;SDS011;35761;48.826;9.238;2024-03-23T04:53:29;7.78;;;4.15;;
49860;SDS011;35761;48.826;9.238;2024-03-23T04:55:55;7.32;;;4.13;;
49860;SDS011;35761;48.826;9.238;2024-03-23T04:58:24;9.15;;;5.18;;
49860;SDS011;35761;48.826;9.238;2024-03-23T05:00:54;10.75;;;5.80;;
49860;SDS011;35761;48.826;9.238;2024-03-23T05:03:20;13.13;;;7.60;;
49860;SDS011;35761;48.826;9.238;2024-03-23T05:05:46;11.13;;;7.55;;
49860;SDS011;35761;48.826;9.238;2024-03-23T05:08:13;14.57;;;9.18;;
49860;SDS011;35761;48.826;9.238;2024-03-23T05:10:38;17.92;;;8.77;;
49860;SDS011;35761;48.826;9.238;2024-03-23T05:13:04;14.63;;;9.10;;
49860;SDS011;35761;48.826;9.238;2024-03-23T05:15:29;13.85;;;9.40;;
49860;SDS011;35761;48.826;9.238;2024-03-23T05:17:55;19.25;;;10.52;;
49860;SDS011;35761;48.826;9.238;2024-03-23T05:20:20;19.92;;;11.68;;
49860;SDS011;35761;48.826;9.238;2024-03-23T05:22:46;23.77;;;10.43;;
49860;SDS011;35761;48.826;9.238;2024-03-23T05:25:11;16.25;;;10.25;;
49860;SDS011;35761;48.826;9.238;2024-03-23T05:27:37;14.93;;;10.63;;
49860;SDS011;35761;48.826;9.238;2024-03-23T05:30:03;17.52;;;11.00;;
49860;SDS011;35761;48.826;9.238;2024-03-23T05:32:29;15.77;;;11.50;;
49860;SDS011;35761;48.826;9.238;2024-03-23T05:34:54;15.98;;;11.13;;
49860;SDS011;35761;48.826;9.238;2024-03-23T05:37:23;16.52;;;11.68;;
49860;SDS011;35761;48.826;9.238;2024-03-23T05:39:49;20.65;;;11.48;;
49860;SDS011;35761;48.826;9.238;2024-03-23T05:42:18;19.48;;;11.90;;
49860;SDS011;35761;48.826;9.238;2024-03-23T05:44:44;15.25;;;10.45;;
49860;SDS011;35761;48.826;9.238;2024-03-23T05:47:10;15.93;;;10.40;;
49860;SDS011;35761;48.826;9.238;2024-03-23T05:49:37;17.38;;;10.82;;
49860;SDS011;35761;48.826;9.238;2024-03-23T05:52:02;20.05;;;11.18;;
49860;SDS011;35761;48.826;9.238;2024-03-23T05:54:29;19.52;;;11.38;;
49860;SDS011;35761;48.826;9.238;2024-03-23T05:56:55;21.08;;;11.52;;
49860;SDS011;35761;48.826;9.238;2024-03-23T05:59:21;16.27;;;9.77;;
49860;SDS011;35761;48.826;9.238;2024-03-23T06:01:47;14.45;;;10.20;;
49860;SDS011;35761;48.826;9.238;2024-03-23T06:04:12;9.20;;;6.10;;
49860;SDS011;35761;48.826;9.238;2024-03-23T06:06:39;11.27;;;6.45;;
49860;SDS011;35761;48.826;9.238;2024-03-23T06:09:04;8.30;;;5.13;;
49860;SDS011;35761;48.826;9.238;2024-03-23T06:11:30;7.57;;;3.40;;
49860;SDS011;35761;48.826;9.238;2024-03-23T06:13:56;7.13;;;3.90;;
49860;SDS011;35761;48.826;9.238;2024-03-23T06:16:21;7.65;;;3.70;;
49860;SDS011;35761;48.826;9.238;2024-03-23T06:18:51;5.53;;;3.40;;
49860;SDS011;35761;48.826;9.238;2024-03-23T06:21:16;6.35;;;3.35;;
49860;SDS011;35761;48.826;9.238;2024-03-23T06:23:42;4.65;;;3.45;;
49860;SDS011;35761;48.826;9.238;2024-03-23T06:26:08;5.82;;;2.67;;
49860;SDS011;35761;48.826;9.238;2024-03-23T06:28:34;5.20;;;2.80;;
49860;SDS011;35761;48.826;9.238;2024-03-23T06:31:00;5.20;;;2.78;;
49860;SDS011;35761;48.826;9.238;2024-03-23T06:33:26;5.20;;;2.80;;
49860;SDS011;35761;48.826;9.238;2024-03-23T06:35:51;4.20;;;2.30;;
49860;SDS011;35761;48.826;9.238;2024-03-23T06:38:17;3.90;;;2.40;;
49860;SDS011;35761;48.826;9.238;2024-03-23T06:40:43;5.00;;;2.53;;
49860;SDS011;35761;48.826;9.238;2024-03-23T06:43:15;6.38;;;1.77;;
49860;SDS011;35761;48.826;9.238;2024-03-23T06:45:41;3.10;;;1.90;;
49860;SDS011;35761;48.826;9.238;2024-03-23T06:48:07;4.70;;;1.90;;
49860;SDS011;35761;48.826;9.238;2024-03-23T06:50:33;4.95;;;1.98;;
49860;SDS011;35761;48.826;9.238;2024-03-23T06:52:59;2.50;;;1.40;;
49860;SDS011;35761;48.826;9.238;2024-03-23T06:55:24;3.65;;;1.35;;
49860;SDS011;35761;48.826;9.238;2024-03-23T06:57:52;1.80;;;1.17;;
49860;SDS011;35761;48.826;9.238;2024-03-23T07:00:17;2.47;;;1.20;;
49860;SDS011;35761;48.826;9.238;2024-03-23T07:02:43;1.75;;;1.10;;
49860;SDS011;35761;48.826;9.238;2024-03-23T07:05:10;1.35;;;1.15;;
49860;SDS011;35761;48.826;9.238;2024-03-23T07:07:36;2.13;;;1.50;;
49860;SDS011;35761;48.826;9.238;2024-03-23T07:10:03;3.25;;;1.00;;
49860;SDS011;35761;48.826;9.238;2024-03-23T07:12:29;1.67;;;0.88;;
49860;SDS011;35761;48.826;9.238;2024-03-23T07:14:54;1.13;;;1.02;;
49860;SDS011;35761;48.826;9.238;2024-03-23T07:17:20;0.90;;;0.90;;
49860;SDS011;35761;48.826;9.238;2024-03-23T07:19:46;2.97;;;0.80;;
49860;SDS011;35761;48.826;9.238;2024-03-23T07:22:11;1.25;;;0.80;;
49860;SDS011;35761;48.826;9.238;2024-03-23T07:24:38;1.73;;;1.02;;
49860;SDS011;35761;48.826;9.238;2024-03-23T07:27:05;1.80;;;1.35;;
49860;SDS011;35761;48.826;9.238;2024-03-23T07:29:31;1.00;;;0.88;;
49860;SDS011;35761;48.826;9.238;2024-03-23T07:31:56;1.10;;;0.90;;
49860;SDS011;35761;48.826;9.238;2024-03-23T07:34:22;1.00;;;0.90;;
49860;SDS011;35761;48.826;9.238;2024-03-23T07:36:49;1.25;;;0.85;;
49860;SDS011;35761;48.826;9.238;2024-03-23T07:39:14;1.27;;;0.77;;
49860;SDS011;35761;48.826;9.238;2024-03-23T07:41:40;1.20;;;0.90;;
49860;SDS011;35761;48.826;9.238;2024-03-23T07:44:10;0.93;;;0.75;;
49860;SDS011;35761;48.826;9.238;2024-03-23T07:46:36;0.95;;;0.90;;
49860;SDS011;35761;48.826;9.238;2024-03-23T07:49:01;1.10;;;0.70;;
49860;SDS011;35761;48.826;9.238;2024-03-23T07:51:27;2.15;;;0.63;;
49860;SDS011;35761;48.826;9.238;2024-03-23T07:53:52;1.00;;;0.65;;
49860;SDS011;35761;48.826;9.238;2024-03-23T07:56:18;0.40;;;0.40;;
49860;SDS011;35761;48.826;9.238;2024-03-23T07:58:44;1.17;;;0.60;;
49860;SDS011;35761;48.826;9.238;2024-03-23T08:01:11;0.82;;;0.70;;
49860;SDS011;35761;48.826;9.238;2024-03-23T08:03:39;0.60;;;0.60;;
49860;SDS011;35761;48.826;9.238;2024-03-23T08:06:13;3.10;;;0.95;;
49860;SDS011;35761;48.826;9.238;2024-03-23T08:08:43;1.70;;;0.60;;
49860;SDS011;35761;48.826;9.238;2024-03-23T08:11:09;1.10;;;0.60;;
49860;SDS011;35761;48.826;9.238;2024-03-23T08:13:35;3.72;;;0.95;;
49860;SDS011;35761;48.826;9.238;2024-03-23T08:16:03;1.60;;;0.65;;
49860;SDS011;35761;48.826;9.238;2024-03-23T08:18:30;0.55;;;0.45;;
49860;SDS011;35761;48.826;9.238;2024-03-23T08:21:05;0.63;;;0.63;;
49860;SDS011;35761;48.826;9.238;2024-03-23T08:23:32;1.00;;;0.68;;
49860;SDS011;35761;48.826;9.238;2024-03-23T08:26:07;1.35;;;0.90;;
49860;SDS011;35761;48.826;9.238;2024-03-23T08:28:34;1.23;;;0.65;;
49860;SDS011;35761;48.826;9.238;2024-03-23T08:31:00;3.22;;;0.90;;
49860;SDS011;35761;48.826;9.238;2024-03-23T08:33:27;1.85;;;0.80;;
49860;SDS011;35761;48.826;9.238;2024-03-23T08:38:18;2.38;;;1.02;;
49860;SDS011;35761;48.826;9.238;2024-03-23T08:40:44;1.50;;;0.80;;
49860;SDS011;35761;48.826;9.238;2024-03-23T08:43:09;2.45;;;1.00;;
49860;SDS011;35761;48.826;9.238;2024-03-23T08:45:35;3.20;;;0.95;;
49860;SDS011;35761;48.826;9.238;2024-03-23T08:48:00;3.47;;;1.00;;
49860;SDS011;35761;48.826;9.238;2024-03-23T08:50:26;2.92;;;1.08;;
49860;SDS011;35761;48.826;9.238;2024-03-23T08:52:51;3.42;;;1.30;;
49860;SDS011;35761;48.826;9.238;2024-03-23T08:55:17;3.33;;;1.13;;
49860;SDS011;35761;48.826;9.238;2024-03-23T08:57:43;3.20;;;1.23;;
49860;SDS011;35761;48.826;9.238;2024-03-23T09:00:09;6.63;;;1.63;;
49860;SDS011;35761;48.826;9.238;2024-03-23T09:02:36;9.32;;;1.73;;
49860;SDS011;35761;48.826;9.238;2024-03-23T09:05:02;4.63;;;1.70;;
49860;SDS011;35761;48.826;9.238;2024-03-23T09:07:32;6.68;;;1.95;;
49860;SDS011;35761;48.826;9.238;2024-03-23T09:09:58;6.13;;;1.88;;
49860;SDS011;35761;48.826;9.238;2024-03-23T09:12:23;7.38;;;2.15;;
49860;SDS011;35761;48.826;9.238;2024-03-23T09:14:49;7.43;;;2.13;;
49860;SDS011;35761;48.826;9.238;2024-03-23T09:17:16;9.23;;;1.92;;
49860;SDS011;35761;48.826;9.238;2024-03-23T09:19:41;8.23;;;2.45;;
49860;SDS011;35761;48.826;9.238;2024-03-23T09:22:07;8.07;;;2.58;;
49860;SDS011;35761;48.826;9.238;2024-03-23T09:24:33;7.32;;;2.50;;
49860;SDS011;35761;48.826;9.238;2024-03-23T09:26:58;6.05;;;2.25;;
49860;SDS011;35761;48.826;9.238;2024-03-23T09:29:24;9.95;;;2.40;;
49860;SDS011;35761;48.826;9.238;2024-03-23T09:31:50;12.27;;;3.17;;
49860;SDS011;35761;48.826;9.238;2024-03-23T09:34:15;7.47;;;2.50;;
49860;SDS011;35761;48.826;9.238;2024-03-23T09:36:41;10.73;;;2.55;;
49860;SDS011;35761;48.826;9.238;2024-03-23T09:39:07;6.97;;;2.65;;
49860;SDS011;35761;48.826;9.238;2024-03-23T09:41:35;9.48;;;2.47;;
49860;SDS011;35761;48.826;9.238;2024-03-23T09:44:01;10.13;;;2.70;;
49860;SDS011;35761;48.826;9.238;2024-03-23T09:46:27;5.65;;;2.13;;
49860;SDS011;35761;48.826;9.238;2024-03-23T09:48:55;7.75;;;2.70;;
49860;SDS011;35761;48.826;9.238;2024-03-23T09:51:21;9.80;;;2.80;;
49860;SDS011;35761;48.826;9.238;2024-03-23T09:53:46;8.38;;;2.47;;
49860;SDS011;35761;48.826;9.238;2024-03-23T09:56:13;9.63;;;2.60;;
49860;SDS011;35761;48.826;9.238;2024-03-23T09:58:39;11.88;;;3.60;;
49860;SDS011;35761;48.826;9.238;2024-03-23T10:01:04;7.30;;;2.75;;
49860;SDS011;35761;48.826;9.238;2024-03-23T10:03:30;10.13;;;2.50;;
49860;SDS011;35761;48.826;9.238;2024-03-23T10:06:01;4.68;;;2.22;;
49860;SDS011;35761;48.826;9.238;2024-03-23T10:08:28;6.40;;;2.65;;
49860;SDS011;35761;48.826;9.238;2024-03-23T10:10:55;6.88;;;2.42;;
49860;SDS011;35761;48.826;9.238;2024-03-23T10:13:24;9.15;;;3.30;;
49860;SDS011;35761;48.826;9.238;2024-03-23T10:15:56;9.13;;;3.15;;
49860;SDS011;35761;48.826;9.238;2024-03-23T10:18:23;8.27;;;2.33;;
49860;SDS011;35761;48.826;9.238;2024-03-23T10:21:05;10.63;;;2.80;;
49860;SDS011;35761;48.826;9.238;2024-03-23T10:23:31;10.73;;;3.05;;
49860;SDS011;35761;48.826;9.238;2024-03-23T10:28:58;7.70;;;2.90;;
49860;SDS011;35761;48.826;9.238;2024-03-23T10:31:33;9.32;;;2.65;;
49860;SDS011;35761;48.826;9.238;2024-03-23T10:33:58;9.60;;;3.00;;
49860;SDS011;35761;48.826;9.238;2024-03-23T10:36:26;12.27;;;3.13;;
49860;SDS011;35761;48.826;9.238;2024-03-23T10:38:51;11.80;;;2.63;;
49860;SDS011;35761;48.826;9.238;2024-03-23T10:41:18;13.23;;;3.65;;
49860;SDS011;35761;48.826;9.238;2024-03-23T10:43:48;8.95;;;2.55;;
49860;SDS011;35761;48.826;9.238;2024-03-23T10:46:14;8.75;;;2.63;;
49860;SDS011;35761;48.826;9.238;2024-03-23T10:48:40;5.88;;;2.80;;
49860;SDS011;35761;48.826;9.238;2024-03-23T10:51:07;9.32;;;3.50;;
49860;SDS011;35761;48.826;9.238;2024-03-23T10:53:33;8.85;;;2.83;;
49860;SDS011;35761;48.826;9.238;2024-03-23T10:55:59;9.30;;;2.90;;
49860;SDS011;35761;48.826;9.238;2024-03-23T10:58:26;9.38;;;3.15;;
49860;SDS011;35761;48.826;9.238;2024-03-23T11:00:54;12.25;;;3.92;;
49860;SDS011;35761;48.826;9.238;2024-03-23T11:03:29;9.48;;;3.75;;
49860;SDS011;35761;48.826;9.238;2024-03-23T11:05:59;8.73;;;3.47;;
49860;SDS011;35761;48.826;9.238;2024-03-23T11:13:54;8.20;;;3.45;;
49860;SDS011;35761;48.826;9.238;2024-03-23T11:18:49;12.70;;;3.20;;
49860;SDS011;35761;48.826;9.238;2024-03-23T11:24:20;8.82;;;3.08;;
49860;SDS011;35761;48.826;9.238;2024-03-23T11:26:46;7.60;;;3.80;;
49860;SDS011;35761;48.826;9.238;2024-03-23T11:29:13;8.25;;;3.53;;
49860;SDS011;35761;48.826;9.238;2024-03-23T11:31:45;9.63;;;3.55;;
49860;SDS011;35761;48.826;9.238;2024-03-23T11:34:19;7.18;;;3.17;;
49860;SDS011;35761;48.826;9.238;2024-03-23T11:36:46;12.23;;;4.00;;
49860;SDS011;35761;48.826;9.238;2024-03-23T11:41:45;7.80;;;3.20;;
49860;SDS011;35761;48.826;9.238;2024-03-23T11:44:22;8.23;;;2.78;;
49860;SDS011;35761;48.826;9.238;2024-03-23T11:46:49;5.43;;;2.47;;
49860;SDS011;35761;48.826;9.238;2024-03-23T11:49:21;7.47;;;2.40;;
49860;SDS011;35761;48.826;9.238;2024-03-23T11:51:47;8.68;;;2.58;;
49860;SDS011;35761;48.826;9.238;2024-03-23T11:54:13;5.40;;;1.88;;
49860;SDS011;35761;48.826;9.238;2024-03-23T11:56:39;6.07;;;2.10;;
49860;SDS011;35761;48.826;9.238;2024-03-23T11:59:05;8.43;;;1.90;;
49860;SDS011;35761;48.826;9.238;2024-03-23T12:01:31;7.38;;;2.00;;
49860;SDS011;35761;48.826;9.238;2024-03-23T12:03:57;8.70;;;1.90;;
49860;SDS011;35761;48.826;9.238;2024-03-23T12:06:23;7.20;;;2.00;;
49860;SDS011;35761;48.826;9.238;2024-03-23T12:08:49;6.75;;;2.05;;
49860;SDS011;35761;48.826;9.238;2024-03-23T12:11:15;7.93;;;2.22;;
49860;SDS011;35761;48.826;9.238;2024-03-23T12:13:42;8.10;;;2.17;;
49860;SDS011;35761;48.826;9.238;2024-03-23T12:16:13;9.38;;;4.70;;
49860;SDS011;35761;48.826;9.238;2024-03-23T12:18:44;2.97;;;1.65;;
49860;SDS011;35761;48.826;9.238;2024-03-23T12:21:10;8.23;;;2.03;;
49860;SDS011;35761;48.826;9.238;2024-03-23T12:23:38;7.03;;;1.83;;
49860;SDS011;35761;48.826;9.238;2024-03-23T12:26:04;11.65;;;2.30;;
49860;SDS011;35761;48.826;9.238;2024-03-23T12:28:30;11.25;;;2.53;;
49860;SDS011;35761;48.826;9.238;2024-03-23T12:30:55;10.55;;;2.65;;
49860;SDS011;35761;48.826;9.238;2024-03-23T12:33:21;10.73;;;2.25;;
49860;SDS011;35761;48.826;9.238;2024-03-23T12:35:47;7.10;;;1.83;;
49860;SDS011;35761;48.826;9.238;2024-03-23T12:38:13;10.15;;;2.00;;
49860;SDS011;35761;48.826;9.238;2024-03-23T12:40:39;7.15;;;2.30;;
49860;SDS011;35761;48.826;9.238;2024-03-23T12:43:04;9.07;;;1.95;;
49860;SDS011;35761;48.826;9.238;2024-03-23T12:45:30;8.73;;;2.15;;
49860;SDS011;35761;48.826;9.238;2024-03-23T12:47:56;10.73;;;2.58;;
49860;SDS011;35761;48.826;9.238;2024-03-23T12:50:21;8.05;;;2.22;;
49860;SDS011;35761;48.826;9.238;2024-03-23T12:52:47;12.60;;;2.20;;
49860;SDS011;35761;48.826;9.238;2024-03-23T12:55:13;9.95;;;2.45;;
49860;SDS011;35761;48.826;9.238;2024-03-23T12:57:38;8.93;;;2.42;;
49860;SDS011;35761;48.826;9.238;2024-03-23T13:00:05;11.15;;;4.32;;
49860;SDS011;35761;48.826;9.238;2024-03-23T13:02:31;9.13;;;2.20;;
49860;SDS011;35761;48.826;9.238;2024-03-23T13:05:00;9.77;;;2.30;;
49860;SDS011;35761;48.826;9.238;2024-03-23T13:07:25;7.50;;;2.50;;
49860;SDS011;35761;48.826;9.238;2024-03-23T13:09:51;12.23;;;1.95;;
49860;SDS011;35761;48.826;9.238;2024-03-23T13:12:17;11.75;;;2.60;;
49860;SDS011;35761;48.826;9.238;2024-03-23T13:14:44;8.95;;;2.40;;
49860;SDS011;35761;48.826;9.238;2024-03-23T13:17:10;9.20;;;2.80;;
49860;SDS011;35761;48.826;9.238;2024-03-23T13:19:35;6.75;;;2.35;;
49860;SDS011;35761;48.826;9.238;2024-03-23T13:22:01;8.15;;;2.28;;
49860;SDS011;35761;48.826;9.238;2024-03-23T13:24:27;8.55;;;2.10;;
49860;SDS011;35761;48.826;9.238;2024-03-23T13:26:53;8.20;;;2.40;;
49860;SDS011;35761;48.826;9.238;2024-03-23T13:29:20;9.50;;;2.38;;
49860;SDS011;35761;48.826;9.238;2024-03-23T13:31:49;9.18;;;1.90;;
49860;SDS011;35761;48.826;9.238;2024-03-23T13:34:15;7.57;;;2.10;;
49860;SDS011;35761;48.826;9.238;2024-03-23T13:36:41;7.88;;;2.13;;
49860;SDS011;35761;48.826;9.238;2024-03-23T13:39:08;10.23;;;2.00;;
49860;SDS011;35761;48.826;9.238;2024-03-23T13:41:40;16.45;;;6.03;;
49860;SDS011;35761;48.826;9.238;2024-03-23T13:44:06;10.93;;;2.25;;
49860;SDS011;35761;48.826;9.238;2024-03-23T13:46:32;8.90;;;2.50;;
49860;SDS011;35761;48.826;9.238;2024-03-23T13:48:58;10.68;;;2.10;;
49860;SDS011;35761;48.826;9.238;2024-03-23T13:51:24;10.90;;;2.60;;
49860;SDS011;35761;48.826;9.238;2024-03-23T13:53:55;24.02;;;9.43;;
49860;SDS011;35761;48.826;9.238;2024-03-23T13:58:55;8.57;;;1.80;;
49860;SDS011;35761;48.826;9.238;2024-03-23T14:01:21;5.65;;;2.03;;
49860;SDS011;35761;48.826;9.238;2024-03-23T14:03:47;9.25;;;2.28;;
49860;SDS011;35761;48.826;9.238;2024-03-23T14:06:12;8.02;;;2.17;;
49860;SDS011;35761;48.826;9.238;2024-03-23T14:08:38;7.15;;;1.52;;
49860;SDS011;35761;48.826;9.238;2024-03-23T14:11:08;10.55;;;2.10;;
49860;SDS011;35761;48.826;9.238;2024-03-23T14:13:34;5.88;;;1.52;;
49860;SDS011;35761;48.826;9.238;2024-03-23T14:16:00;7.55;;;1.50;;
49860;SDS011;35761;48.826;9.238;2024-03-23T14:18:27;9.52;;;2.20;;
49860;SDS011;35761;48.826;9.238;2024-03-23T14:20:56;7.05;;;1.90;;
49860;SDS011;35761;48.826;9.238;2024-03-23T14:23:25;6.05;;;1.70;;
49860;SDS011;35761;48.826;9.238;2024-03-23T14:25:54;3.15;;;1.30;;
49860;SDS011;35761;48.826;9.238;2024-03-23T14:28:21;5.78;;;1.25;;
49860;SDS011;35761;48.826;9.238;2024-03-23T14:30:50;3.17;;;1.42;;
49860;SDS011;35761;48.826;9.238;2024-03-23T14:33:16;5.05;;;1.40;;
49860;SDS011;35761;48.826;9.238;2024-03-23T14:35:43;4.22;;;1.23;;
49860;SDS011;35761;48.826;9.238;2024-03-23T14:38:09;3.03;;;1.20;;
49860;SDS011;35761;48.826;9.238;2024-03-23T14:40:34;2.35;;;0.98;;
49860;SDS011;35761;48.826;9.238;2024-03-23T14:43:00;2.85;;;1.15;;
49860;SDS011;35761;48.826;9.238;2024-03-23T14:45:27;1.05;;;0.85;;
49860;SDS011;35761;48.826;9.238;2024-03-23T14:47:53;20.67;;;8.90;;
49860;SDS011;35761;48.826;9.238;2024-03-23T14:50:20;10.63;;;3.60;;
49860;SDS011;35761;48.826;9.238;2024-03-23T14:52:46;5.65;;;1.40;;
49860;SDS011;35761;48.826;9.238;2024-03-23T14:55:12;8.32;;;1.52;;
49860;SDS011;35761;48.826;9.238;2024-03-23T14:57:38;3.03;;;1.15;;
49860;SDS011;35761;48.826;9.238;2024-03-23T15:00:05;4.35;;;1.60;;
49860;SDS011;35761;48.826;9.238;2024-03-23T15:02:33;4.53;;;1.40;;
49860;SDS011;35761;48.826;9.238;2024-03-23T15:04:59;6.13;;;1.50;;
49860;SDS011;35761;48.826;9.238;2024-03-23T15:07:25;6.95;;;1.65;;
49860;SDS011;35761;48.826;9.238;2024-03-23T15:09:52;4.78;;;1.55;;
49860;SDS011;35761;48.826;9.238;2024-03-23T15:12:18;3.55;;;1.33;;
49860;SDS011;35761;48.826;9.238;2024-03-23T15:14:44;9.35;;;2.67;;
49860;SDS011;35761;48.826;9.238;2024-03-23T15:17:11;4.55;;;1.50;;
49860;SDS011;35761;48.826;9.238;2024-03-23T15:19:37;4.32;;;1.42;;
49860;SDS011;35761;48.826;9.238;2024-03-23T15:22:02;5.85;;;1.30;;
49860;SDS011;35761;48.826;9.238;2024-03-23T15:24:28;3.67;;;1.20;;
49860;SDS011;35761;48.826;9.238;2024-03-23T15:26:54;3.60;;;1.00;;
49860;SDS011;35761;48.826;9.238;2024-03-23T15:29:20;1.63;;;0.93;;
49860;SDS011;35761;48.826;9.238;2024-03-23T15:31:47;4.90;;;1.10;;
49860;SDS011;35761;48.826;9.238;2024-03-23T15:34:16;3.20;;;1.25;;
49860;SDS011;35761;48.826;9.238;2024-03-23T15:36:41;2.70;;;1.13;;
49860;SDS011;35761;48.826;9.238;2024-03-23T15:39:07;3.30;;;1.13;;
49860;SDS011;35761;48.826;9.238;2024-03-23T15:41:33;6.03;;;1.00;;
49860;SDS011;35761;48.826;9.238;2024-03-23T15:44:01;3.83;;;1.45;;
49860;SDS011;35761;48.826;9.238;2024-03-23T15:46:27;4.05;;;1.08;;
49860;SDS011;35761;48.826;9.238;2024-03-23T15:48:53;4.75;;;1.17;;
49860;SDS011;35761;48.826;9.238;2024-03-23T15:51:20;2.40;;;1.05;;
49860;SDS011;35761;48.826;9.238;2024-03-23T15:53:45;4.88;;;1.10;;